sensor_id;sensor_type;location;lat;lon;timestamp;pressure;altitude;pressure_sealevel;temperature;humidity
85760;BME280;76206;39.770;2.710;2024-02-21T07:12:55;102625.75;;;7.84;58.50
85760;BME280;76206;39.770;2.710;2024-02-21T07:15:21;102618.55;;;7.79;57.51
85760;BME280;76206;39.770;2.710;2024-02-21T07:17:46;102616.86;;;7.78;59.00
85760;BME280;76206;39.770;2.710;2024-02-21T07:20:12;102617.53;;;7.70;59.62
85760;BME280;76206;39.770;2.710;2024-02-21T07:22:37;102619.02;;;7.56;59.18
85760;BME280;76206;39.770;2.710;2024-02-21T07:25:03;102614.27;;;7.41;58.50
85760;BME280;76206;39.770;2.710;2024-02-21T07:27:29;102610.42;;;7.24;57.89
85760;BME280;76206;39.770;2.710;2024-02-21T07:29:56;102618.02;;;7.06;57.89
85760;BME280;76206;39.770;2.710;2024-02-21T07:32:22;102618.13;;;6.88;58.18
85760;BME280;76206;39.770;2.710;2024-02-21T07:34:48;102621.82;;;6.74;58.32
85760;BME280;76206;39.770;2.710;2024-02-21T07:37:13;102629.45;;;6.62;58.71
85760;BME280;76206;39.770;2.710;2024-02-21T07:39:38;102633.23;;;6.53;58.72
85760;BME280;76206;39.770;2.710;2024-02-21T07:42:04;102638.21;;;6.43;59.26
85760;BME280;76206;39.770;2.710;2024-02-21T07:44:29;102642.48;;;6.35;59.42
85760;BME280;76206;39.770;2.710;2024-02-21T07:46:57;102648.56;;;6.33;59.84
85760;BME280;76206;39.770;2.710;2024-02-21T07:49:22;102648.60;;;6.31;60.32
85760;BME280;76206;39.770;2.710;2024-02-21T07:51:48;102648.45;;;6.28;59.85
85760;BME280;76206;39.770;2.710;2024-02-21T07:54:13;102649.38;;;6.24;59.52
85760;BME280;76206;39.770;2.710;2024-02-21T07:56:39;102653.36;;;6.10;59.14
85760;BME280;76206;39.770;2.710;2024-02-21T07:59:05;102655.46;;;5.94;59.18
85760;BME280;76206;39.770;2.710;2024-02-21T08:01:30;102661.80;;;5.82;60.37
85760;BME280;76206;39.770;2.710;2024-02-21T08:03:56;102667.14;;;5.86;61.89
85760;BME280;76206;39.770;2.710;2024-02-21T08:06:22;102668.84;;;6.03;62.14
85760;BME280;76206;39.770;2.710;2024-02-21T08:08:47;102675.16;;;6.36;63.69
85760;BME280;76206;39.770;2.710;2024-02-21T08:11:13;102675.45;;;6.65;63.68
85760;BME280;76206;39.770;2.710;2024-02-21T08:13:39;102675.56;;;6.93;62.81
85760;BME280;76206;39.770;2.710;2024-02-21T08:16:05;102664.06;;;7.18;62.07
85760;BME280;76206;39.770;2.710;2024-02-21T08:18:30;102666.65;;;7.39;61.03
85760;BME280;76206;39.770;2.710;2024-02-21T08:20:56;102665.56;;;7.61;60.54
85760;BME280;76206;39.770;2.710;2024-02-21T08:23:23;102665.23;;;7.79;60.15
85760;BME280;76206;39.770;2.710;2024-02-21T08:25:49;102670.40;;;7.97;59.84
85760;BME280;76206;39.770;2.710;2024-02-21T08:28:15;102671.21;;;8.17;59.65
85760;BME280;76206;39.770;2.710;2024-02-21T08:30:40;102669.77;;;8.46;59.62
85760;BME280;76206;39.770;2.710;2024-02-21T08:33:09;102667.48;;;8.78;59.17
85760;BME280;76206;39.770;2.710;2024-02-21T08:35:35;102665.95;;;9.13;58.90
85760;BME280;76206;39.770;2.710;2024-02-21T08:38:00;102657.73;;;9.60;59.08
85760;BME280;76206;39.770;2.710;2024-02-21T08:40:26;102652.19;;;10.77;57.14
85760;BME280;76206;39.770;2.710;2024-02-21T08:42:51;102637.85;;;12.41;53.89
85760;BME280;76206;39.770;2.710;2024-02-21T08:45:17;102631.76;;;14.01;51.01
85760;BME280;76206;39.770;2.710;2024-02-21T08:47:42;102631.36;;;15.62;47.88
85760;BME280;76206;39.770;2.710;2024-02-21T08:50:08;102624.41;;;17.12;45.13
85760;BME280;76206;39.770;2.710;2024-02-21T08:52:37;102621.36;;;18.62;43.62
85760;BME280;76206;39.770;2.710;2024-02-21T08:55:03;102616.39;;;20.25;42.25
85760;BME280;76206;39.770;2.710;2024-02-21T08:57:29;102615.59;;;21.69;38.63
85760;BME280;76206;39.770;2.710;2024-02-21T08:59:54;102620.59;;;22.76;36.84
85760;BME280;76206;39.770;2.710;2024-02-21T09:02:19;102618.77;;;23.39;34.93
85760;BME280;76206;39.770;2.710;2024-02-21T09:04:45;102617.27;;;23.75;32.72
85760;BME280;76206;39.770;2.710;2024-02-21T09:07:10;102622.10;;;23.93;32.90
85760;BME280;76206;39.770;2.710;2024-02-21T09:09:36;102625.92;;;24.06;31.84
85760;BME280;76206;39.770;2.710;2024-02-21T09:12:05;102624.73;;;24.15;31.54
85760;BME280;76206;39.770;2.710;2024-02-21T09:14:32;102624.83;;;24.26;31.40
85760;BME280;76206;39.770;2.710;2024-02-21T09:16:57;102626.27;;;24.43;31.27
85760;BME280;76206;39.770;2.710;2024-02-21T09:19:23;102623.88;;;24.73;30.55
85760;BME280;76206;39.770;2.710;2024-02-21T09:21:48;102619.31;;;24.86;30.49
85760;BME280;76206;39.770;2.710;2024-02-21T09:24:14;102618.38;;;25.04;30.56
85760;BME280;76206;39.770;2.710;2024-02-21T09:26:40;102619.64;;;25.10;30.29
85760;BME280;76206;39.770;2.710;2024-02-21T09:29:05;102618.63;;;25.39;31.72
85760;BME280;76206;39.770;2.710;2024-02-21T09:31:31;102617.23;;;25.63;31.77
85760;BME280;76206;39.770;2.710;2024-02-21T09:33:56;102622.19;;;26.20;31.36
85760;BME280;76206;39.770;2.710;2024-02-21T09:36:22;102620.48;;;27.11;30.96
85760;BME280;76206;39.770;2.710;2024-02-21T09:38:48;102614.73;;;28.26;30.12
85760;BME280;76206;39.770;2.710;2024-02-21T09:41:20;102613.09;;;29.47;29.00
85760;BME280;76206;39.770;2.710;2024-02-21T09:43:49;102610.02;;;30.68;28.11
85760;BME280;76206;39.770;2.710;2024-02-21T09:46:16;102615.16;;;31.71;27.01
85760;BME280;76206;39.770;2.710;2024-02-21T09:51:53;102617.14;;;33.78;25.64
85760;BME280;76206;39.770;2.710;2024-02-21T09:54:20;102621.58;;;34.63;24.94
85760;BME280;76206;39.770;2.710;2024-02-21T09:56:47;102624.23;;;35.35;24.21
85760;BME280;76206;39.770;2.710;2024-02-21T09:59:16;102617.48;;;35.91;23.22
85760;BME280;76206;39.770;2.710;2024-02-21T10:01:42;102612.41;;;36.30;22.41
85760;BME280;76206;39.770;2.710;2024-02-21T10:04:09;102597.37;;;36.64;22.15
85760;BME280;76206;39.770;2.710;2024-02-21T10:06:35;102590.45;;;37.05;21.99
85760;BME280;76206;39.770;2.710;2024-02-21T10:09:03;102590.23;;;37.48;21.59
85760;BME280;76206;39.770;2.710;2024-02-21T10:11:29;102585.33;;;37.89;20.91
85760;BME280;76206;39.770;2.710;2024-02-21T10:14:12;102581.97;;;38.26;20.74
85760;BME280;76206;39.770;2.710;2024-02-21T10:16:37;102585.92;;;38.70;20.57
85760;BME280;76206;39.770;2.710;2024-02-21T10:19:03;102587.63;;;39.15;20.19
85760;BME280;76206;39.770;2.710;2024-02-21T10:21:28;102589.09;;;39.32;19.45
85760;BME280;76206;39.770;2.710;2024-02-21T10:23:54;102589.24;;;39.45;19.08
85760;BME280;76206;39.770;2.710;2024-02-21T10:26:20;102587.80;;;39.59;18.96
85760;BME280;76206;39.770;2.710;2024-02-21T10:28:49;102587.27;;;39.77;18.79
85760;BME280;76206;39.770;2.710;2024-02-21T10:31:28;102587.20;;;39.98;18.56
85760;BME280;76206;39.770;2.710;2024-02-21T10:33:58;102588.29;;;40.17;18.12
85760;BME280;76206;39.770;2.710;2024-02-21T10:36:24;102594.34;;;40.36;17.86
85760;BME280;76206;39.770;2.710;2024-02-21T10:38:51;102590.20;;;40.59;17.79
85760;BME280;76206;39.770;2.710;2024-02-21T10:41:19;102590.64;;;40.83;17.29
85760;BME280;76206;39.770;2.710;2024-02-21T10:43:49;102587.11;;;41.08;17.09
85760;BME280;76206;39.770;2.710;2024-02-21T10:46:19;102584.38;;;41.20;17.07
85760;BME280;76206;39.770;2.710;2024-02-21T10:48:45;102580.59;;;41.36;16.93
85760;BME280;76206;39.770;2.710;2024-02-21T10:51:16;102579.27;;;41.43;16.17
85760;BME280;76206;39.770;2.710;2024-02-21T10:56:32;102569.05;;;41.30;16.09
85760;BME280;76206;39.770;2.710;2024-02-21T10:59:03;102565.43;;;41.23;15.93
85760;BME280;76206;39.770;2.710;2024-02-21T11:01:29;102560.39;;;40.98;15.66
85760;BME280;76206;39.770;2.710;2024-02-21T11:03:59;102558.98;;;40.49;15.58
85760;BME280;76206;39.770;2.710;2024-02-21T11:06:27;102557.63;;;39.83;15.69
85760;BME280;76206;39.770;2.710;2024-02-21T11:09:01;102553.06;;;39.13;15.85
85760;BME280;76206;39.770;2.710;2024-02-21T11:11:28;102549.08;;;38.46;16.01
85760;BME280;76206;39.770;2.710;2024-02-21T11:14:07;102545.43;;;38.01;16.44
85760;BME280;76206;39.770;2.710;2024-02-21T11:16:38;102541.29;;;37.78;16.46
85760;BME280;76206;39.770;2.710;2024-02-21T11:19:05;102538.41;;;37.66;16.60
85760;BME280;76206;39.770;2.710;2024-02-21T11:21:35;102534.13;;;37.71;17.03
85760;BME280;76206;39.770;2.710;2024-02-21T11:24:02;102529.15;;;37.85;17.17
85760;BME280;76206;39.770;2.710;2024-02-21T11:26:29;102526.53;;;37.82;17.37
85760;BME280;76206;39.770;2.710;2024-02-21T11:29:01;102523.56;;;37.51;17.49
85760;BME280;76206;39.770;2.710;2024-02-21T11:31:41;102514.77;;;36.92;17.73
85760;BME280;76206;39.770;2.710;2024-02-21T11:34:10;102507.66;;;36.09;18.12
85760;BME280;76206;39.770;2.710;2024-02-21T11:36:46;102511.57;;;35.13;18.61
85760;BME280;76206;39.770;2.710;2024-02-21T11:39:20;102503.61;;;33.87;19.32
85760;BME280;76206;39.770;2.710;2024-02-21T11:42:04;102500.05;;;32.42;20.40
85760;BME280;76206;39.770;2.710;2024-02-21T11:44:31;102492.00;;;31.08;21.28
85760;BME280;76206;39.770;2.710;2024-02-21T11:46:57;102493.46;;;30.03;21.99
85760;BME280;76206;39.770;2.710;2024-02-21T11:49:28;102491.34;;;29.11;22.85
85760;BME280;76206;39.770;2.710;2024-02-21T11:52:00;102483.27;;;28.21;23.90
85760;BME280;76206;39.770;2.710;2024-02-21T11:54:27;102484.11;;;27.71;24.41
85760;BME280;76206;39.770;2.710;2024-02-21T11:56:53;102491.58;;;27.56;24.82
85760;BME280;76206;39.770;2.710;2024-02-21T11:59:19;102487.73;;;27.59;25.14
85760;BME280;76206;39.770;2.710;2024-02-21T12:01:44;102497.02;;;27.67;25.12
85760;BME280;76206;39.770;2.710;2024-02-21T12:04:10;102496.66;;;27.82;25.35
85760;BME280;76206;39.770;2.710;2024-02-21T12:06:36;102504.33;;;27.96;25.54
85760;BME280;76206;39.770;2.710;2024-02-21T12:09:01;102500.33;;;28.14;25.60
85760;BME280;76206;39.770;2.710;2024-02-21T12:11:27;102497.89;;;28.37;25.65
85760;BME280;76206;39.770;2.710;2024-02-21T12:14:03;102500.63;;;28.59;25.60
85760;BME280;76206;39.770;2.710;2024-02-21T12:16:30;102490.11;;;28.75;25.39
85760;BME280;76206;39.770;2.710;2024-02-21T12:19:00;102489.26;;;28.84;25.48
85760;BME280;76206;39.770;2.710;2024-02-21T12:21:26;102482.59;;;28.90;25.50
85760;BME280;76206;39.770;2.710;2024-02-21T12:23:56;102477.20;;;29.01;25.67
85760;BME280;76206;39.770;2.710;2024-02-21T12:26:22;102473.43;;;29.16;25.67
85760;BME280;76206;39.770;2.710;2024-02-21T12:28:48;102472.88;;;29.28;25.53
85760;BME280;76206;39.770;2.710;2024-02-21T12:31:14;102456.41;;;29.36;25.43
85760;BME280;76206;39.770;2.710;2024-02-21T12:33:42;102445.66;;;29.37;25.64
85760;BME280;76206;39.770;2.710;2024-02-21T12:36:07;102440.21;;;29.34;25.25
85760;BME280;76206;39.770;2.710;2024-02-21T12:38:34;102431.78;;;29.22;25.28
85760;BME280;76206;39.770;2.710;2024-02-21T12:41:00;102426.23;;;29.09;25.35
85760;BME280;76206;39.770;2.710;2024-02-21T12:43:26;102420.90;;;28.93;25.52
85760;BME280;76206;39.770;2.710;2024-02-21T12:45:52;102424.45;;;28.73;25.26
85760;BME280;76206;39.770;2.710;2024-02-21T12:48:18;102415.54;;;28.36;25.44
85760;BME280;76206;39.770;2.710;2024-02-21T12:50:52;102403.77;;;27.88;25.56
85760;BME280;76206;39.770;2.710;2024-02-21T12:53:19;102403.84;;;27.40;25.70
85760;BME280;76206;39.770;2.710;2024-02-21T12:55:47;102401.73;;;26.94;26.02
85760;BME280;76206;39.770;2.710;2024-02-21T12:58:14;102395.00;;;26.43;26.38
85760;BME280;76206;39.770;2.710;2024-02-21T13:00:40;102389.49;;;25.87;26.67
85760;BME280;76206;39.770;2.710;2024-02-21T13:03:06;102378.16;;;25.36;27.12
85760;BME280;76206;39.770;2.710;2024-02-21T13:05:31;102384.30;;;24.94;27.56
85760;BME280;76206;39.770;2.710;2024-02-21T13:07:58;102381.98;;;24.55;27.95
85760;BME280;76206;39.770;2.710;2024-02-21T13:10:24;102370.66;;;24.10;28.25
85760;BME280;76206;39.770;2.710;2024-02-21T13:12:49;102354.34;;;23.77;28.98
85760;BME280;76206;39.770;2.710;2024-02-21T13:15:15;102354.75;;;23.46;29.26
85760;BME280;76206;39.770;2.710;2024-02-21T13:17:43;102349.90;;;23.19;29.83
85760;BME280;76206;39.770;2.710;2024-02-21T13:20:09;102344.55;;;22.93;30.00
85760;BME280;76206;39.770;2.710;2024-02-21T13:22:36;102337.82;;;22.69;30.32
85760;BME280;76206;39.770;2.710;2024-02-21T13:25:02;102336.08;;;22.50;30.76
85760;BME280;76206;39.770;2.710;2024-02-21T13:27:27;102330.87;;;22.30;30.87
85760;BME280;76206;39.770;2.710;2024-02-21T13:29:53;102335.25;;;22.14;31.17
85760;BME280;76206;39.770;2.710;2024-02-21T13:32:18;102331.55;;;22.02;31.39
85760;BME280;76206;39.770;2.710;2024-02-21T13:34:44;102324.79;;;21.85;31.64
85760;BME280;76206;39.770;2.710;2024-02-21T13:37:09;102320.07;;;21.69;31.99
85760;BME280;76206;39.770;2.710;2024-02-21T13:39:36;102309.66;;;21.47;31.99
85760;BME280;76206;39.770;2.710;2024-02-21T13:42:02;102303.30;;;21.28;32.32
85760;BME280;76206;39.770;2.710;2024-02-21T13:44:31;102306.96;;;21.12;32.30
85760;BME280;76206;39.770;2.710;2024-02-21T13:46:57;102297.52;;;20.96;32.46
85760;BME280;76206;39.770;2.710;2024-02-21T13:49:22;102301.28;;;20.83;32.84
85760;BME280;76206;39.770;2.710;2024-02-21T13:51:48;102292.51;;;20.67;32.92
85760;BME280;76206;39.770;2.710;2024-02-21T13:54:13;102290.10;;;20.50;33.11
85760;BME280;76206;39.770;2.710;2024-02-21T13:56:42;102289.81;;;20.36;33.18
85760;BME280;76206;39.770;2.710;2024-02-21T13:59:08;102273.89;;;20.19;33.04
85760;BME280;76206;39.770;2.710;2024-02-21T14:01:34;102275.83;;;20.11;33.19
85760;BME280;76206;39.770;2.710;2024-02-21T14:04:01;102270.55;;;20.01;33.51
85760;BME280;76206;39.770;2.710;2024-02-21T14:06:27;102263.34;;;19.91;33.69
85760;BME280;76206;39.770;2.710;2024-02-21T14:08:52;102256.66;;;19.80;33.92
85760;BME280;76206;39.770;2.710;2024-02-21T14:11:17;102255.24;;;19.63;34.22
85760;BME280;76206;39.770;2.710;2024-02-21T14:13:43;102248.67;;;19.43;34.43
85760;BME280;76206;39.770;2.710;2024-02-21T14:16:10;102246.68;;;19.27;34.96
85760;BME280;76206;39.770;2.710;2024-02-21T14:18:40;102235.20;;;19.08;35.09
85760;BME280;76206;39.770;2.710;2024-02-21T14:21:08;102238.95;;;18.95;35.66
85760;BME280;76206;39.770;2.710;2024-02-21T14:23:36;102237.54;;;18.83;35.98
85760;BME280;76206;39.770;2.710;2024-02-21T14:26:02;102243.56;;;18.75;35.96
85760;BME280;76206;39.770;2.710;2024-02-21T14:28:28;102238.34;;;18.67;36.01
85760;BME280;76206;39.770;2.710;2024-02-21T14:30:54;102237.55;;;18.59;36.20
85760;BME280;76206;39.770;2.710;2024-02-21T14:33:23;102246.30;;;18.45;36.34
85760;BME280;76206;39.770;2.710;2024-02-21T14:35:49;102243.17;;;18.29;36.43
85760;BME280;76206;39.770;2.710;2024-02-21T14:38:15;102241.88;;;18.10;37.26
85760;BME280;76206;39.770;2.710;2024-02-21T14:40:40;102241.19;;;17.82;37.79
85760;BME280;76206;39.770;2.710;2024-02-21T14:43:06;102251.29;;;17.57;38.13
85760;BME280;76206;39.770;2.710;2024-02-21T14:45:31;102249.71;;;17.33;38.51
85760;BME280;76206;39.770;2.710;2024-02-21T14:47:56;102248.65;;;17.12;38.81
85760;BME280;76206;39.770;2.710;2024-02-21T14:50:22;102241.57;;;16.93;39.13
85760;BME280;76206;39.770;2.710;2024-02-21T14:52:48;102244.35;;;16.80;39.39
85760;BME280;76206;39.770;2.710;2024-02-21T14:55:14;102246.90;;;16.63;40.05
85760;BME280;76206;39.770;2.710;2024-02-21T14:57:40;102234.02;;;16.49;39.95
85760;BME280;76206;39.770;2.710;2024-02-21T15:00:08;102234.17;;;16.52;40.30
85760;BME280;76206;39.770;2.710;2024-02-21T15:02:34;102238.34;;;16.62;39.87
85760;BME280;76206;39.770;2.710;2024-02-21T15:05:00;102242.59;;;16.75;40.14
85760;BME280;76206;39.770;2.710;2024-02-21T15:07:26;102233.03;;;16.87;39.96
85760;BME280;76206;39.770;2.710;2024-02-21T15:09:52;102229.97;;;16.99;39.75
85760;BME280;76206;39.770;2.710;2024-02-21T15:12:18;102228.58;;;17.12;39.60
85760;BME280;76206;39.770;2.710;2024-02-21T15:14:43;102230.41;;;17.24;39.48
85760;BME280;76206;39.770;2.710;2024-02-21T15:17:10;102226.46;;;17.36;39.32
85760;BME280;76206;39.770;2.710;2024-02-21T15:19:36;102222.55;;;17.46;39.31
85760;BME280;76206;39.770;2.710;2024-02-21T15:22:04;102215.09;;;17.56;39.23
85760;BME280;76206;39.770;2.710;2024-02-21T15:24:30;102212.92;;;17.64;39.11
85760;BME280;76206;39.770;2.710;2024-02-21T15:26:55;102210.20;;;17.74;38.94
85760;BME280;76206;39.770;2.710;2024-02-21T15:29:21;102210.05;;;17.83;38.69
85760;BME280;76206;39.770;2.710;2024-02-21T15:31:48;102208.72;;;17.92;38.51
85760;BME280;76206;39.770;2.710;2024-02-21T15:34:14;102203.15;;;18.01;38.34
85760;BME280;76206;39.770;2.710;2024-02-21T15:36:43;102201.17;;;18.09;38.32
85760;BME280;76206;39.770;2.710;2024-02-21T15:39:08;102195.27;;;18.13;38.35
85760;BME280;76206;39.770;2.710;2024-02-21T15:41:36;102191.81;;;18.17;38.31
85760;BME280;76206;39.770;2.710;2024-02-21T15:44:04;102191.88;;;18.18;38.53
85760;BME280;76206;39.770;2.710;2024-02-21T15:46:30;102193.06;;;18.19;38.54
85760;BME280;76206;39.770;2.710;2024-02-21T15:49:01;102196.05;;;18.19;38.56
85760;BME280;76206;39.770;2.710;2024-02-21T15:51:27;102192.09;;;18.20;38.62
85760;BME280;76206;39.770;2.710;2024-02-21T15:53:52;102193.73;;;18.22;38.73
85760;BME280;76206;39.770;2.710;2024-02-21T15:56:18;102195.67;;;18.22;38.75
85760;BME280;76206;39.770;2.710;2024-02-21T15:58:43;102197.29;;;18.21;39.13
85760;BME280;76206;39.770;2.710;2024-02-21T16:01:09;102195.65;;;18.17;39.28
85760;BME280;76206;39.770;2.710;2024-02-21T16:03:37;102190.73;;;18.15;39.42
85760;BME280;76206;39.770;2.710;2024-02-21T16:06:03;102188.59;;;18.12;39.38
85760;BME280;76206;39.770;2.710;2024-02-21T16:08:29;102191.82;;;18.12;39.66
85760;BME280;76206;39.770;2.710;2024-02-21T16:10:54;102187.58;;;18.10;39.73
85760;BME280;76206;39.770;2.710;2024-02-21T16:13:21;102189.57;;;18.06;40.03
85760;BME280;76206;39.770;2.710;2024-02-21T16:15:47;102188.14;;;18.04;40.00
85760;BME280;76206;39.770;2.710;2024-02-21T16:18:14;102185.69;;;18.01;40.26
85760;BME280;76206;39.770;2.710;2024-02-21T16:20:45;102189.22;;;17.99;40.37
85760;BME280;76206;39.770;2.710;2024-02-21T16:23:10;102193.44;;;17.97;40.35
85760;BME280;76206;39.770;2.710;2024-02-21T16:25:36;102189.40;;;17.94;40.32
85760;BME280;76206;39.770;2.710;2024-02-21T16:28:01;102193.98;;;17.91;40.80
85760;BME280;76206;39.770;2.710;2024-02-21T16:30:29;102183.33;;;17.85;41.05
85760;BME280;76206;39.770;2.710;2024-02-21T16:32:54;102179.19;;;17.79;41.14
85760;BME280;76206;39.770;2.710;2024-02-21T16:35:20;102179.63;;;17.72;41.07
85760;BME280;76206;39.770;2.710;2024-02-21T16:37:45;102181.02;;;17.64;40.94
85760;BME280;76206;39.770;2.710;2024-02-21T16:40:12;102176.33;;;17.56;41.15
85760;BME280;76206;39.770;2.710;2024-02-21T16:42:38;102177.41;;;17.50;41.66
85760;BME280;76206;39.770;2.710;2024-02-21T16:45:03;102173.83;;;17.43;41.92
85760;BME280;76206;39.770;2.710;2024-02-21T16:47:30;102169.28;;;17.37;41.63
85760;BME280;76206;39.770;2.710;2024-02-21T16:49:56;102164.96;;;17.33;42.23
85760;BME280;76206;39.770;2.710;2024-02-21T16:52:23;102164.42;;;17.31;42.53
85760;BME280;76206;39.770;2.710;2024-02-21T16:54:48;102167.60;;;17.28;43.17
85760;BME280;76206;39.770;2.710;2024-02-21T16:57:14;102167.29;;;17.25;43.68
85760;BME280;76206;39.770;2.710;2024-02-21T16:59:40;102167.54;;;17.22;43.91
85760;BME280;76206;39.770;2.710;2024-02-21T17:02:06;102164.84;;;17.17;44.03
85760;BME280;76206;39.770;2.710;2024-02-21T17:04:32;102161.29;;;17.07;45.48
85760;BME280;76206;39.770;2.710;2024-02-21T17:06:57;102168.77;;;16.87;46.67
85760;BME280;76206;39.770;2.710;2024-02-21T17:09:23;102169.02;;;16.64;47.37
85760;BME280;76206;39.770;2.710;2024-02-21T17:11:48;102176.73;;;16.43;48.56
85760;BME280;76206;39.770;2.710;2024-02-21T17:14:15;102166.46;;;16.21;48.80
85760;BME280;76206;39.770;2.710;2024-02-21T17:16:40;102165.54;;;16.02;48.77
85760;BME280;76206;39.770;2.710;2024-02-21T17:19:05;102168.32;;;15.89;49.17
85760;BME280;76206;39.770;2.710;2024-02-21T17:21:34;102172.52;;;15.75;49.27
85760;BME280;76206;39.770;2.710;2024-02-21T17:24:00;102179.60;;;15.65;49.30
85760;BME280;76206;39.770;2.710;2024-02-21T17:26:27;102179.01;;;15.63;49.71
85760;BME280;76206;39.770;2.710;2024-02-21T17:28:52;102179.33;;;15.63;51.54
85760;BME280;76206;39.770;2.710;2024-02-21T17:31:18;102182.67;;;15.58;52.22
85760;BME280;76206;39.770;2.710;2024-02-21T17:33:44;102179.20;;;15.48;52.52
85760;BME280;76206;39.770;2.710;2024-02-21T17:36:11;102179.77;;;15.35;52.82
85760;BME280;76206;39.770;2.710;2024-02-21T17:38:37;102181.53;;;15.24;52.90
85760;BME280;76206;39.770;2.710;2024-02-21T17:41:02;102179.91;;;15.09;53.29
85760;BME280;76206;39.770;2.710;2024-02-21T17:43:28;102180.00;;;14.95;53.58
85760;BME280;76206;39.770;2.710;2024-02-21T17:45:55;102179.45;;;14.80;54.00
85760;BME280;76206;39.770;2.710;2024-02-21T17:48:22;102178.38;;;14.71;54.65
85760;BME280;76206;39.770;2.710;2024-02-21T17:50:49;102175.42;;;14.62;54.51
85760;BME280;76206;39.770;2.710;2024-02-21T17:53:16;102174.98;;;14.53;54.83
85760;BME280;76206;39.770;2.710;2024-02-21T17:55:42;102183.79;;;14.44;55.07
85760;BME280;76206;39.770;2.710;2024-02-21T17:58:07;102188.02;;;14.34;55.77
85760;BME280;76206;39.770;2.710;2024-02-21T18:00:33;102182.85;;;14.35;55.62
85760;BME280;76206;39.770;2.710;2024-02-21T18:02:58;102180.14;;;14.43;54.92
